Historique des mesures à Cassis (13260), France
Quotidien Résumé Juillet 3, 2018 Unités:  Métrique    US   Métrique/US
« Précédent (Jour)
Suivant (Jour) »
Quotidien Hebdomadaire Mensuel Annuel Période au choix
  Maximum: Minimum: Moyenne:
Température: TemperatureC °C 22.9 °C 26.2 °C
Point de rosée: DewpointC °C 19.1 °C 20.5 °C
Humidité: Humidity % 59 % 67 %
Vitesse du vent: 0 km/h 0 km/h 2.4 km/h
Rafales: 0 km/h - -
Vent:- - SSE
Pression: PressurehPa hPa 1009.8 hPa -
Précipitations: 0.0 mm    
Historical Graphs
 
 
Mesures pour : Juillet 3, 2018
Heure Temperature Point de rosée Pression Vent Vitesse du vent Rafales Humidité Pluie (par heure) Conditions
TemperatureC °C DewpointC °C PressurehPa hPa Calm     Humidity % HourlyPrecipMM mm SoftwareType W/m2
00:10 25.6 °C 20.6 °C 1010.1 hPa Calm     74 % 0.0 mm open2300-1.11 W/m2
01:10 25.3 °C 20.6 °C 1010.3 hPa WNW 5.6 km/h 5.6 km/h 75 % 0.0 mm open2300-1.11 W/m2
02:10 24.6 °C 19.9 °C 1009.9 hPa Calm     75 % 0.0 mm open2300-1.11 W/m2
03:10 24.2 °C 19.7 °C 1009.9 hPa Calm     76 % 0.0 mm open2300-1.11 W/m2
04:10 24.1 °C 19.8 °C 1010.0 hPa Calm     77 % 0.0 mm open2300-1.11 W/m2
05:10 24.0 °C 19.9 °C 1010.4 hPa WNW 5.1 km/h 10.3 km/h 78 % 0.0 mm open2300-1.11 W/m2
06:10 22.9 °C 19.1 °C 1010.4 hPa Calm   2.3 km/h 79 % 0.0 mm open2300-1.11 W/m2
07:10 23.1 °C 19.1 °C 1010.7 hPa North 4.7 km/h 5.6 km/h 78 % 0.0 mm open2300-1.11 W/m2
08:10 25.1 °C 20.3 °C 1011.1 hPa Calm     75 % 0.0 mm open2300-1.11 W/m2
09:10 25.7 °C 20.9 °C 1011.2 hPa ESE 5.6 km/h 9.8 km/h 75 % 0.0 mm open2300-1.11 W/m2
10:10 26.9 °C 21.9 °C 1011.1 hPa SSW 6.9 km/h 6.9 km/h 74 % 0.0 mm open2300-1.11 W/m2
11:10 30.1 °C 23.1 °C 1011.1 hPa SSE 5.6 km/h 14.5 km/h 66 % 0.0 mm open2300-1.11 W/m2
12:10 31.1 °C 23.5 °C 1011.0 hPa SSE 4.7 km/h 8.9 km/h 64 % 0.0 mm open2300-1.11 W/m2
13:10 32.0 °C 23.6 °C 1010.9 hPa Calm   6.9 km/h 61 % 0.0 mm open2300-1.11 W/m2
14:10 32.4 °C 23.3 °C 1010.6 hPa ESE 3.4 km/h 9.8 km/h 59 % 0.0 mm open2300-1.11 W/m2
15:10 31.6 °C 22.9 °C 1010.5 hPa SSE 3.4 km/h 8.9 km/h 60 % 0.0 mm open2300-1.11 W/m2
16:10 31.2 °C 22.6 °C 1010.7 hPa Calm   14.5 km/h 60 % 0.0 mm open2300-1.11 W/m2
17:10 30.9 °C 22.8 °C 1010.5 hPa South 3.4 km/h 10.9 km/h 62 % 0.0 mm open2300-1.11 W/m2
18:10 29.8 °C 21.7 °C 1010.1 hPa SE 2.9 km/h 12.2 km/h 62 % 0.0 mm open2300-1.11 W/m2
19:10 28.9 °C 21.7 °C 1009.8 hPa SE 4.2 km/h 11.6 km/h 65 % 0.0 mm open2300-1.11 W/m2
20:10 27.9 °C 21.7 °C 1010.3 hPa SSE 3.4 km/h 8.9 km/h 69 % 0.0 mm open2300-1.11 W/m2
21:10 26.9 °C 21.2 °C 1010.7 hPa Calm   2.9 km/h 71 % 0.0 mm open2300-1.11 W/m2
22:10 26.1 °C 21.1 °C 1011.2 hPa Calm     74 % 0.0 mm open2300-1.11 W/m2
23:10 25.5 °C 20.7 °C 1011.9 hPa Calm     75 % 0.0 mm open2300-1.11 W/m2
Observations météo à CASSIS
WU-History script by Weather Underground - 1 mb